createdAt,value
2022-10-18T00:00:02.359Z,91.85
2022-10-18T00:02:31.399Z,91.75
2022-10-18T00:04:58.198Z,92.34
2022-10-18T00:07:24.933Z,92.38
2022-10-18T00:09:51.705Z,92.47
2022-10-18T00:12:18.499Z,92.22
2022-10-18T00:14:45.223Z,92.29
2022-10-18T00:17:12.213Z,91.91
2022-10-18T00:19:38.877Z,92.28
2022-10-18T00:22:05.570Z,92.56
2022-10-18T00:24:32.385Z,93.22
2022-10-18T00:26:59.125Z,93.93
2022-10-18T00:29:25.988Z,93.87
2022-10-18T00:31:52.706Z,94.16
2022-10-18T00:34:19.477Z,94.40
2022-10-18T00:36:46.477Z,94.14
2022-10-18T00:39:20.477Z,94.60
2022-10-18T00:41:48.519Z,94.39
2022-10-18T00:44:15.153Z,93.84
2022-10-18T00:46:45.208Z,93.67
2022-10-18T00:49:16.605Z,93.59
2022-10-18T00:51:46.817Z,93.64
2022-10-18T00:54:15.120Z,93.93
2022-10-18T00:56:44.830Z,94.00
2022-10-18T00:59:14.753Z,94.05
2022-10-18T01:01:41.641Z,93.99
2022-10-18T01:04:08.469Z,94.46
2022-10-18T01:06:53.166Z,94.34
2022-10-18T01:09:38.618Z,94.29
2022-10-18T01:12:11.308Z,94.44
2022-10-18T01:14:54.510Z,94.52
2022-10-18T01:17:27.254Z,94.69
2022-10-18T01:19:59.763Z,95.13
2022-10-18T01:22:34.794Z,95.04
2022-10-18T01:25:06.399Z,94.97
2022-10-18T01:27:43.093Z,94.86
2022-10-18T01:30:40.739Z,95.04
2022-10-18T01:33:22.984Z,95.32
2022-10-18T01:36:05.934Z,94.73
2022-10-18T01:38:34.753Z,94.56
2022-10-18T01:41:04.393Z,94.69
2022-10-18T01:43:32.978Z,94.28
2022-10-18T01:46:00.647Z,94.46
2022-10-18T01:48:29.590Z,94.15
2022-10-18T01:50:57.154Z,94.38
2022-10-18T01:53:29.917Z,94.61
2022-10-18T01:56:16.745Z,94.50
2022-10-18T01:59:05.254Z,95.43
2022-10-18T02:01:41.116Z,95.45
2022-10-18T02:04:27.189Z,95.69
2022-10-18T02:07:03.957Z,95.49
2022-10-18T02:09:39.683Z,96.25
2022-10-18T02:12:10.944Z,96.08
2022-10-18T02:14:39.815Z,95.46
2022-10-18T02:17:09.859Z,95.99
2022-10-18T02:19:41.054Z,96.64
2022-10-18T02:22:10.810Z,96.43
2022-10-18T02:24:50.017Z,95.81
2022-10-18T02:27:17.117Z,96.31
2022-10-18T02:29:44.541Z,96.10
2022-10-18T02:32:11.192Z,95.43
2022-10-18T02:34:45.450Z,96.27
2022-10-18T02:37:14.534Z,94.79
2022-10-18T02:39:50.181Z,94.83
2022-10-18T02:42:17.341Z,93.74
2022-10-18T02:44:44.143Z,93.37
2022-10-18T02:47:12.497Z,93.54
2022-10-18T02:49:39.484Z,93.21
2022-10-18T02:52:06.345Z,93.83
2022-10-18T02:54:33.127Z,94.01
2022-10-18T02:56:59.903Z,94.47
2022-10-18T02:59:26.638Z,94.17
2022-10-18T03:01:53.469Z,94.57
2022-10-18T03:04:20.307Z,94.55
2022-10-18T03:06:47.106Z,95.08
2022-10-18T03:09:13.794Z,95.61
2022-10-18T03:11:40.578Z,94.91
2022-10-18T03:14:07.275Z,94.89
2022-10-18T03:16:34.290Z,94.82
2022-10-18T03:19:01.136Z,93.73
2022-10-18T03:21:27.870Z,93.15
2022-10-18T03:23:54.677Z,92.80
2022-10-18T03:26:21.696Z,93.08
2022-10-18T03:28:48.485Z,93.41
2022-10-18T03:31:15.383Z,92.40
2022-10-18T03:33:42.203Z,94.23
2022-10-18T03:36:09.075Z,94.64
2022-10-18T03:38:35.881Z,94.01
2022-10-18T03:41:02.671Z,92.85
2022-10-18T03:43:29.589Z,92.94
2022-10-18T03:45:56.452Z,92.69
2022-10-18T03:48:23.684Z,91.76
2022-10-18T03:50:50.572Z,92.09
2022-10-18T03:53:17.318Z,92.18
2022-10-18T03:55:44.112Z,92.35
2022-10-18T03:58:10.912Z,93.23
2022-10-18T04:00:37.655Z,94.07
2022-10-18T04:03:04.425Z,93.96
2022-10-18T04:05:31.520Z,93.91
2022-10-18T04:07:58.690Z,93.93
2022-10-18T04:10:26.039Z,93.60
2022-10-18T04:12:52.860Z,94.37
2022-10-18T04:15:19.698Z,94.21
2022-10-18T04:17:46.645Z,93.98
2022-10-18T04:20:13.819Z,93.39
2022-10-18T04:22:40.723Z,92.56
2022-10-18T04:25:07.794Z,91.08
2022-10-18T04:27:34.907Z,90.33
2022-10-18T04:30:01.885Z,90.44
2022-10-18T04:32:29.468Z,91.07
2022-10-18T04:34:56.500Z,91.22
2022-10-18T04:37:23.362Z,92.13
2022-10-18T04:39:53.463Z,92.61
2022-10-18T04:42:22.170Z,93.36
2022-10-18T04:44:49.447Z,93.12
2022-10-18T04:47:17.221Z,93.37
2022-10-18T04:49:44.377Z,93.05
2022-10-18T04:52:11.194Z,91.63
2022-10-18T04:54:38.084Z,91.17
2022-10-18T04:57:04.910Z,90.55
2022-10-18T04:59:31.676Z,89.48
2022-10-18T05:01:58.540Z,88.41
2022-10-18T05:04:25.506Z,87.20
2022-10-18T05:06:52.336Z,86.83
2022-10-18T05:09:19.248Z,84.82
2022-10-18T05:11:46.033Z,83.60
2022-10-18T05:14:12.859Z,82.56
2022-10-18T05:16:39.621Z,81.29
2022-10-18T05:19:06.483Z,81.07
2022-10-18T05:21:33.446Z,77.99
2022-10-18T05:24:00.223Z,76.88
2022-10-18T05:26:27.479Z,74.62
2022-10-18T05:28:54.384Z,73.11
2022-10-18T05:31:21.634Z,71.68
2022-10-18T05:33:48.371Z,70.49
2022-10-18T05:36:15.330Z,68.58
2022-10-18T05:38:43.069Z,67.62
2022-10-18T05:41:10.673Z,65.69
2022-10-18T05:43:37.812Z,64.63
2022-10-18T05:46:07.201Z,63.38
2022-10-18T05:48:36.540Z,62.86
2022-10-18T05:51:03.439Z,61.27
2022-10-18T05:53:38.377Z,59.10
2022-10-18T05:56:06.992Z,57.53
2022-10-18T05:58:34.004Z,56.95
2022-10-18T06:01:05.628Z,55.94
2022-10-18T06:06:35.440Z,53.68
2022-10-18T06:09:03.507Z,53.33
2022-10-18T06:11:30.957Z,53.10
2022-10-18T06:13:58.322Z,52.71
2022-10-18T06:16:32.042Z,52.03
2022-10-18T06:19:00.134Z,50.70
2022-10-18T06:21:27.661Z,50.61
2022-10-18T06:23:56.919Z,50.32
2022-10-18T06:26:24.418Z,50.05
2022-10-18T06:28:51.404Z,48.83
2022-10-18T06:31:18.657Z,49.21
2022-10-18T06:33:46.118Z,48.83
2022-10-18T06:36:17.868Z,47.38
2022-10-18T06:38:44.781Z,46.98
2022-10-18T06:41:11.882Z,45.59
2022-10-18T06:43:38.732Z,46.14
2022-10-18T06:46:07.787Z,45.65
2022-10-18T06:48:35.956Z,44.98
2022-10-18T06:51:05.449Z,44.25
2022-10-18T06:53:36.267Z,43.51
2022-10-18T06:56:06.144Z,42.46
2022-10-18T06:58:33.463Z,42.09
2022-10-18T07:01:05.078Z,41.83
2022-10-18T07:03:31.781Z,41.29
2022-10-18T07:06:01.702Z,41.00
2022-10-18T07:08:29.359Z,40.83
2022-10-18T07:10:56.192Z,40.37
2022-10-18T07:13:38.606Z,39.85
2022-10-18T07:16:06.793Z,39.58
2022-10-18T07:18:35.962Z,38.93
2022-10-18T07:21:05.294Z,39.49
2022-10-18T07:23:36.721Z,37.99
2022-10-18T07:26:10.371Z,37.63
2022-10-18T07:28:37.274Z,36.49
2022-10-18T07:31:08.381Z,36.59
2022-10-18T07:33:36.910Z,35.44
2022-10-18T07:36:06.090Z,35.38
2022-10-18T07:38:33.554Z,35.55
2022-10-18T07:41:01.669Z,33.79
2022-10-18T07:43:28.707Z,34.14
2022-10-18T07:45:57.729Z,32.90
2022-10-18T07:48:24.965Z,32.97
2022-10-18T07:50:52.691Z,32.23
2022-10-18T07:53:19.556Z,30.79
2022-10-18T07:55:46.411Z,31.10
2022-10-18T07:58:13.176Z,31.35
2022-10-18T08:00:40.578Z,30.10
2022-10-18T08:03:07.546Z,30.15
2022-10-18T08:05:34.437Z,30.25
2022-10-18T08:08:04.295Z,28.69
2022-10-18T08:10:35.567Z,29.14
2022-10-18T08:13:02.282Z,28.28
2022-10-18T08:15:28.966Z,27.73
2022-10-18T08:17:55.716Z,26.91
2022-10-18T08:20:31.099Z,26.90
2022-10-18T08:23:00.471Z,27.06
2022-10-18T08:25:28.438Z,25.92
2022-10-18T08:27:55.171Z,26.43
2022-10-18T08:30:23.477Z,26.64
2022-10-18T08:32:50.229Z,25.14
2022-10-18T08:35:17.103Z,25.14
2022-10-18T08:37:45.345Z,25.87
2022-10-18T08:40:15.891Z,25.03
2022-10-18T08:43:22.079Z,25.73
2022-10-18T08:45:51.465Z,25.31
2022-10-18T08:48:27.811Z,25.91
2022-10-18T08:50:57.470Z,25.70
2022-10-18T08:53:26.808Z,25.18
2022-10-18T08:56:19.030Z,25.88
2022-10-18T08:58:46.111Z,25.72
2022-10-18T09:01:32.448Z,27.24
2022-10-18T09:04:26.826Z,26.44
2022-10-18T09:07:15.900Z,25.52
2022-10-18T09:10:18.614Z,25.70
2022-10-18T09:13:10.242Z,24.64
2022-10-18T09:15:59.209Z,25.33
2022-10-18T09:18:58.342Z,24.95
2022-10-18T09:21:41.466Z,25.29
2022-10-18T09:24:13.257Z,24.87
2022-10-18T09:26:45.490Z,25.32
2022-10-18T09:29:21.212Z,24.68
2022-10-18T09:31:53.823Z,23.47
2022-10-18T09:34:39.231Z,23.32
2022-10-18T09:37:13.541Z,23.73
2022-10-18T09:39:41.230Z,23.37
2022-10-18T09:42:26.728Z,23.62
2022-10-18T09:45:01.337Z,23.71
2022-10-18T09:47:43.042Z,24.11
2022-10-18T09:50:36.012Z,24.21
2022-10-18T09:53:36.994Z,24.57
2022-10-18T09:56:11.990Z,25.50
2022-10-18T09:58:46.514Z,25.19
2022-10-18T10:01:18.038Z,24.78
2022-10-18T10:03:44.866Z,24.17
2022-10-18T10:06:11.502Z,23.49
2022-10-18T10:08:42.754Z,23.01
2022-10-18T10:11:35.258Z,22.74
2022-10-18T10:14:17.917Z,23.15
2022-10-18T10:16:57.941Z,23.40
2022-10-18T10:19:32.560Z,23.34
2022-10-18T10:22:04.819Z,23.54
2022-10-18T10:24:43.994Z,23.73
2022-10-18T10:27:18.808Z,23.82
2022-10-18T10:29:45.662Z,23.85
2022-10-18T10:32:14.593Z,22.92
2022-10-18T10:34:44.659Z,23.01
2022-10-18T10:37:25.976Z,22.23
2022-10-18T10:40:18.449Z,21.87
2022-10-18T10:43:43.511Z,21.18
2022-10-18T10:46:13.182Z,21.54
2022-10-18T10:49:34.583Z,20.82
2022-10-18T10:52:08.194Z,20.67
2022-10-18T10:54:50.301Z,20.81
2022-10-18T10:57:26.257Z,21.42
2022-10-18T10:59:56.326Z,21.88
2022-10-18T11:02:29.803Z,22.59
2022-10-18T11:05:15.223Z,22.40
2022-10-18T11:07:45.532Z,22.42
2022-10-18T11:10:19.614Z,22.36
2022-10-18T11:13:23.119Z,22.22
2022-10-18T11:15:57.233Z,22.47
2022-10-18T11:18:27.051Z,22.58
2022-10-18T11:21:02.296Z,22.96
2022-10-18T11:23:33.059Z,22.99
2022-10-18T11:26:11.632Z,23.01
2022-10-18T11:29:20.184Z,23.00
2022-10-18T11:31:55.716Z,23.28
2022-10-18T11:34:22.449Z,24.02
2022-10-18T11:37:15.604Z,24.36
2022-10-18T11:39:57.763Z,23.91
2022-10-18T11:42:50.785Z,23.24
2022-10-18T11:45:46.918Z,23.43
2022-10-18T11:48:42.503Z,22.85
2022-10-18T11:51:38.732Z,22.68
2022-10-18T11:57:22.407Z,23.24
2022-10-18T11:59:59.496Z,22.70
2022-10-18T12:02:44.634Z,22.90
2022-10-18T12:05:22.984Z,22.80
2022-10-18T12:08:02.538Z,22.32
2022-10-18T12:10:44.482Z,22.66
2022-10-18T12:13:44.365Z,23.30
2022-10-18T12:16:12.570Z,24.24
2022-10-18T12:18:49.514Z,24.91
2022-10-18T12:21:25.293Z,26.57
2022-10-18T12:24:04.558Z,27.08
2022-10-18T12:26:33.137Z,28.15
2022-10-18T12:29:08.726Z,29.05
2022-10-18T12:31:57.269Z,29.93
2022-10-18T12:34:35.081Z,30.23
2022-10-18T12:37:07.693Z,31.30
2022-10-18T12:40:09.037Z,31.70
2022-10-18T12:42:42.465Z,32.07
2022-10-18T12:45:33.419Z,32.14
2022-10-18T12:48:04.934Z,32.65
2022-10-18T12:50:35.345Z,32.34
2022-10-18T12:53:29.467Z,32.81
2022-10-18T12:56:28.408Z,33.00
2022-10-18T12:59:14.244Z,33.17
2022-10-18T13:01:53.326Z,33.15
2022-10-18T13:04:29.644Z,33.53
2022-10-18T13:07:05.509Z,33.07
2022-10-18T13:09:35.543Z,33.22
2022-10-18T13:12:12.383Z,33.13
2022-10-18T13:15:07.141Z,33.30
2022-10-18T13:17:59.331Z,33.31
2022-10-18T13:20:53.836Z,33.54
2022-10-18T13:23:47.075Z,33.38
2022-10-18T13:26:24.270Z,33.80
2022-10-18T13:29:00.331Z,33.86
2022-10-18T13:31:42.494Z,34.59
2022-10-18T13:34:22.492Z,34.76
2022-10-18T13:37:03.129Z,34.99
2022-10-18T13:39:31.469Z,34.80
2022-10-18T13:41:58.229Z,35.00
2022-10-18T13:44:34.478Z,34.84
2022-10-18T13:47:01.242Z,34.54
2022-10-18T13:49:39.935Z,34.38
2022-10-18T13:52:15.821Z,34.39
2022-10-18T13:55:07.183Z,34.66
2022-10-18T13:57:49.312Z,34.80
2022-10-18T14:00:18.914Z,35.08
2022-10-18T14:03:01.087Z,35.28
2022-10-18T14:05:50.052Z,35.71
2022-10-18T14:11:30.561Z,36.52
2022-10-18T14:14:23.156Z,36.53
2022-10-18T14:16:56.558Z,36.84
2022-10-18T14:19:52.491Z,37.06
2022-10-18T14:22:26.567Z,37.54
2022-10-18T14:24:56.100Z,37.89
2022-10-18T14:27:25.505Z,38.23
2022-10-18T14:30:09.776Z,38.67
2022-10-18T14:32:37.047Z,38.49
2022-10-18T14:37:53.901Z,39.50
2022-10-18T14:40:40.680Z,39.63
2022-10-18T14:43:18.733Z,39.85
2022-10-18T14:45:45.731Z,40.17
2022-10-18T14:48:23.641Z,40.76
2022-10-18T14:50:59.451Z,41.08
2022-10-18T14:53:32.576Z,41.33
2022-10-18T14:56:01.172Z,41.75
2022-10-18T14:58:28.502Z,42.67
2022-10-18T15:00:55.596Z,43.05
2022-10-18T15:03:23.257Z,43.64
2022-10-18T15:05:59.635Z,43.63
2022-10-18T15:08:43.715Z,44.33
2022-10-18T15:11:14.468Z,44.99
2022-10-18T15:13:54.630Z,46.74
2022-10-18T15:16:25.686Z,48.06
2022-10-18T15:19:18.569Z,48.04
2022-10-18T15:22:30.333Z,47.79
2022-10-18T15:25:06.330Z,49.98
2022-10-18T15:27:37.454Z,48.60
2022-10-18T15:30:30.123Z,46.94
2022-10-18T15:33:01.630Z,47.93
2022-10-18T15:35:34.533Z,47.26
2022-10-18T15:38:21.529Z,47.86
2022-10-18T15:40:48.383Z,48.42
2022-10-18T15:43:24.331Z,48.64
2022-10-18T15:45:53.794Z,48.71
2022-10-18T15:48:41.004Z,51.92
2022-10-18T15:51:19.603Z,51.21
2022-10-18T15:53:49.398Z,51.74
2022-10-18T15:56:31.200Z,49.53
2022-10-18T15:59:00.854Z,48.67
2022-10-18T16:01:34.591Z,48.67
2022-10-18T16:04:07.314Z,48.74
2022-10-18T16:06:37.428Z,49.27
2022-10-18T16:09:04.291Z,49.01
2022-10-18T16:11:31.136Z,49.24
2022-10-18T16:14:00.341Z,49.18
2022-10-18T16:16:29.395Z,49.49
2022-10-18T16:18:56.710Z,49.48
2022-10-18T16:21:30.023Z,49.18
2022-10-18T16:23:57.489Z,49.18
2022-10-18T16:26:26.208Z,49.02
2022-10-18T16:28:53.980Z,49.20
2022-10-18T16:31:27.140Z,49.09
2022-10-18T16:33:55.265Z,49.47
2022-10-18T16:36:24.576Z,49.31
2022-10-18T16:38:51.595Z,49.58
2022-10-18T16:41:18.909Z,49.68
2022-10-18T16:43:47.466Z,49.48
2022-10-18T16:46:19.623Z,49.39
2022-10-18T16:48:48.060Z,49.62
2022-10-18T16:51:15.207Z,50.20
2022-10-18T16:53:42.439Z,50.43
2022-10-18T16:56:18.025Z,50.42
2022-10-18T16:58:44.967Z,50.43
2022-10-18T17:01:16.719Z,50.49
2022-10-18T17:03:44.489Z,50.84
2022-10-18T17:06:21.597Z,50.94
2022-10-18T17:08:49.023Z,51.13
2022-10-18T17:11:17.340Z,51.22
2022-10-18T17:13:44.524Z,51.12
2022-10-18T17:16:21.494Z,51.40
2022-10-18T17:18:48.338Z,52.76
2022-10-18T17:21:15.219Z,52.58
2022-10-18T17:23:42.097Z,52.41
2022-10-18T17:26:27.939Z,52.67
2022-10-18T17:28:59.152Z,52.60
2022-10-18T17:31:26.238Z,52.63
2022-10-18T17:33:55.408Z,52.94
2022-10-18T17:36:22.914Z,53.20
2022-10-18T17:38:54.269Z,53.12
2022-10-18T17:41:21.669Z,53.76
2022-10-18T17:43:51.278Z,53.71
2022-10-18T17:46:19.581Z,53.46
2022-10-18T17:48:46.555Z,53.74
2022-10-18T17:51:16.121Z,53.51
2022-10-18T17:53:43.003Z,54.02
2022-10-18T17:56:10.823Z,53.87
2022-10-18T17:58:37.595Z,54.03
2022-10-18T18:01:15.200Z,53.82
2022-10-18T18:03:42.782Z,53.99
2022-10-18T18:06:21.908Z,54.39
2022-10-18T18:08:49.680Z,54.41
2022-10-18T18:11:17.865Z,54.38
2022-10-18T18:13:44.660Z,54.48
2022-10-18T18:16:20.389Z,54.56
2022-10-18T18:18:50.125Z,54.60
2022-10-18T18:21:17.303Z,54.78
2022-10-18T18:23:44.703Z,54.27
2022-10-18T18:26:14.496Z,54.39
2022-10-18T18:28:41.747Z,54.41
2022-10-18T18:31:11.946Z,54.59
2022-10-18T18:33:38.872Z,54.77
2022-10-18T18:36:07.092Z,54.97
2022-10-18T18:38:36.191Z,54.56
2022-10-18T18:41:08.688Z,54.46
2022-10-18T18:43:36.583Z,54.64
2022-10-18T18:46:04.211Z,54.35
2022-10-18T18:48:33.717Z,54.93
2022-10-18T18:51:01.215Z,54.97
2022-10-18T18:53:29.678Z,54.52
2022-10-18T18:56:05.931Z,54.76
2022-10-18T18:58:34.671Z,54.89
2022-10-18T19:01:07.930Z,54.93
2022-10-18T19:03:35.146Z,54.88
2022-10-18T19:06:10.087Z,54.68
2022-10-18T19:08:39.864Z,55.15
2022-10-18T19:11:09.348Z,55.16
2022-10-18T19:13:36.535Z,55.58
2022-10-18T19:16:21.796Z,55.83
2022-10-18T19:18:54.493Z,55.69
2022-10-18T19:21:22.617Z,55.60
2022-10-18T19:23:50.352Z,55.97
2022-10-18T19:26:25.949Z,56.22
2022-10-18T19:28:52.881Z,57.05
2022-10-18T19:31:19.935Z,56.46
2022-10-18T19:33:48.459Z,56.92
2022-10-18T19:36:25.475Z,56.60
2022-10-18T19:38:52.298Z,56.77
2022-10-18T19:41:19.092Z,57.13
2022-10-18T19:43:45.900Z,57.58
2022-10-18T19:46:12.695Z,57.48
2022-10-18T19:48:39.523Z,57.20
2022-10-18T19:51:09.433Z,57.32
2022-10-18T19:53:36.805Z,57.67
2022-10-18T19:56:05.381Z,57.52
2022-10-18T19:58:32.637Z,57.85
2022-10-18T20:01:00.310Z,57.69
2022-10-18T20:03:30.406Z,57.33
2022-10-18T20:06:02.499Z,57.37
2022-10-18T20:08:31.656Z,60.05
2022-10-18T20:11:03.392Z,58.27
2022-10-18T20:13:30.350Z,58.49
2022-10-18T20:15:57.177Z,59.25
2022-10-18T20:18:23.915Z,58.50
2022-10-18T20:20:50.873Z,57.87
2022-10-18T20:23:18.757Z,58.25
2022-10-18T20:26:15.469Z,58.73
2022-10-18T20:28:46.130Z,59.06
2022-10-18T20:31:18.306Z,58.23
2022-10-18T20:33:46.740Z,58.71
2022-10-18T20:36:18.433Z,58.37
2022-10-18T20:38:47.034Z,58.74
2022-10-18T20:41:19.536Z,58.51
2022-10-18T20:43:53.845Z,59.45
2022-10-18T20:46:21.111Z,58.92
2022-10-18T20:48:49.324Z,59.20
2022-10-18T20:51:18.796Z,59.62
2022-10-18T20:53:45.841Z,59.81
2022-10-18T20:56:15.783Z,59.80
2022-10-18T20:58:44.520Z,60.10
2022-10-18T21:01:16.980Z,60.44
2022-10-18T21:03:45.837Z,60.07
2022-10-18T21:06:16.725Z,60.20
2022-10-18T21:08:44.393Z,60.81
2022-10-18T21:11:12.560Z,60.37
2022-10-18T21:13:40.942Z,60.80
2022-10-18T21:16:08.126Z,60.63
2022-10-18T21:18:37.124Z,60.82
2022-10-18T21:21:14.293Z,61.31
2022-10-18T21:23:41.893Z,61.47
2022-10-18T21:26:20.584Z,62.50
2022-10-18T21:28:50.903Z,63.02
2022-10-18T21:31:20.703Z,64.42
2022-10-18T21:33:47.987Z,62.55
2022-10-18T21:36:14.867Z,62.91
2022-10-18T21:38:44.968Z,62.56
2022-10-18T21:41:14.193Z,62.29
2022-10-18T21:43:43.677Z,62.80
2022-10-18T21:46:11.576Z,63.21
2022-10-18T21:48:41.937Z,63.27
2022-10-18T21:51:09.403Z,63.66
2022-10-18T21:53:37.385Z,63.60
2022-10-18T21:56:09.474Z,63.44
2022-10-18T21:58:36.847Z,63.66
2022-10-18T22:01:15.376Z,64.44
2022-10-18T22:03:42.662Z,64.18
2022-10-18T22:06:14.453Z,64.21
2022-10-18T22:08:50.312Z,64.22
2022-10-18T22:11:20.118Z,64.86
2022-10-18T22:13:47.222Z,64.71
2022-10-18T22:16:16.010Z,64.54
2022-10-18T22:18:43.555Z,65.02
2022-10-18T22:21:13.438Z,65.27
2022-10-18T22:23:43.316Z,65.35
2022-10-18T22:26:12.239Z,65.26
2022-10-18T22:28:41.079Z,65.29
2022-10-18T22:31:15.187Z,65.92
2022-10-18T22:33:41.956Z,65.71
2022-10-18T22:36:08.844Z,66.05
2022-10-18T22:38:36.273Z,65.97
2022-10-18T22:41:11.412Z,66.36
2022-10-18T22:43:38.623Z,66.46
2022-10-18T22:46:12.681Z,66.48
2022-10-18T22:48:40.105Z,66.48
2022-10-18T22:51:07.657Z,66.10
2022-10-18T22:53:35.851Z,66.52
2022-10-18T22:56:04.005Z,66.45
2022-10-18T22:58:31.240Z,66.97
2022-10-18T23:01:09.070Z,66.89
2022-10-18T23:03:36.223Z,67.42
2022-10-18T23:06:04.176Z,67.77
2022-10-18T23:08:31.358Z,67.75
2022-10-18T23:10:59.712Z,67.91
2022-10-18T23:13:27.513Z,68.60
2022-10-18T23:16:04.359Z,69.02
2022-10-18T23:18:32.691Z,68.37
2022-10-18T23:21:08.244Z,69.13
2022-10-18T23:23:37.175Z,70.05
2022-10-18T23:26:12.973Z,70.32
2022-10-18T23:28:42.322Z,70.05
2022-10-18T23:31:20.164Z,69.80
2022-10-18T23:33:48.638Z,69.99
2022-10-18T23:36:16.172Z,69.99
2022-10-18T23:38:43.700Z,70.83
2022-10-18T23:41:12.604Z,70.79
2022-10-18T23:43:39.319Z,71.01
2022-10-18T23:46:06.365Z,72.02
2022-10-18T23:48:34.251Z,71.46
2022-10-18T23:51:01.892Z,71.42
2022-10-18T23:53:29.480Z,71.67
2022-10-18T23:55:57.695Z,72.25
2022-10-18T23:58:25.850Z,72.34
